Saratoga, California
Current Conditions -  °F | °C
As of 8:53 PM on Saturday 20 Dec 2014 (Local Time) from KSJC Reporting Station
Broken Clouds Broken Clouds  
Wind Chill: 14°   Ceiling: 3600
Heat Index: 14°   Visibility: 10mi
Dew Point: 11°   Wind: 6mph
Humidity: 81%   Direction: 120°ESE
Pressure: 30.25"   Gusts: NA
Location:  37.27°N, 122.01°W
Report Text: KSJC 210453Z 12005KT 10SM BKN036 14/11 A3025 RMK AO2 SLP243 T01440111
Loading
Personal Weather Stations






























Interactive Weather Map New forecast layout! Learn more

10-Day Weather Forecast

Advertisements
Track Severe Weather on mobile